sensor_id;sensor_type;location;lat;lon;timestamp;P1;durP1;ratioP1;P2;durP2;ratioP2
9838;SDS011;4958;48.150;11.506;2022-08-01T00:02:26;4.75;;;2.00;;
9838;SDS011;4958;48.150;11.506;2022-08-01T00:04:53;2.03;;;1.90;;
9838;SDS011;4958;48.150;11.506;2022-08-01T00:07:20;2.10;;;1.95;;
9838;SDS011;4958;48.150;11.506;2022-08-01T00:09:48;3.40;;;2.10;;
9838;SDS011;4958;48.150;11.506;2022-08-01T00:12:17;4.07;;;2.10;;
9838;SDS011;4958;48.150;11.506;2022-08-01T00:14:44;2.55;;;2.20;;
9838;SDS011;4958;48.150;11.506;2022-08-01T00:17:12;2.20;;;2.10;;
9838;SDS011;4958;48.150;11.506;2022-08-01T00:19:38;6.80;;;2.20;;
9838;SDS011;4958;48.150;11.506;2022-08-01T00:22:05;3.42;;;2.15;;
9838;SDS011;4958;48.150;11.506;2022-08-01T00:24:31;3.72;;;2.03;;
9838;SDS011;4958;48.150;11.506;2022-08-01T00:26:57;2.45;;;2.20;;
9838;SDS011;4958;48.150;11.506;2022-08-01T00:29:24;2.08;;;1.98;;
9838;SDS011;4958;48.150;11.506;2022-08-01T00:31:50;2.20;;;2.00;;
9838;SDS011;4958;48.150;11.506;2022-08-01T00:34:18;2.42;;;2.10;;
9838;SDS011;4958;48.150;11.506;2022-08-01T00:36:44;2.10;;;1.90;;
9838;SDS011;4958;48.150;11.506;2022-08-01T00:39:11;2.35;;;1.90;;
9838;SDS011;4958;48.150;11.506;2022-08-01T00:41:38;3.42;;;2.15;;
9838;SDS011;4958;48.150;11.506;2022-08-01T00:44:04;1.88;;;1.77;;
9838;SDS011;4958;48.150;11.506;2022-08-01T00:46:31;2.20;;;2.00;;
9838;SDS011;4958;48.150;11.506;2022-08-01T00:48:58;2.30;;;2.10;;
9838;SDS011;4958;48.150;11.506;2022-08-01T00:51:27;2.47;;;2.10;;
9838;SDS011;4958;48.150;11.506;2022-08-01T00:53:54;3.60;;;1.92;;
9838;SDS011;4958;48.150;11.506;2022-08-01T00:56:21;3.72;;;2.25;;
9838;SDS011;4958;48.150;11.506;2022-08-01T00:58:51;2.28;;;2.08;;
9838;SDS011;4958;48.150;11.506;2022-08-01T01:01:18;1.95;;;1.85;;
9838;SDS011;4958;48.150;11.506;2022-08-01T01:03:45;4.90;;;2.20;;
9838;SDS011;4958;48.150;11.506;2022-08-01T01:06:19;2.95;;;1.90;;
9838;SDS011;4958;48.150;11.506;2022-08-01T01:08:54;2.10;;;1.90;;
9838;SDS011;4958;48.150;11.506;2022-08-01T01:11:36;2.47;;;2.28;;
9838;SDS011;4958;48.150;11.506;2022-08-01T01:14:13;2.05;;;1.95;;
9838;SDS011;4958;48.150;11.506;2022-08-01T01:16:45;2.90;;;2.10;;
9838;SDS011;4958;48.150;11.506;2022-08-01T01:19:13;4.72;;;2.38;;
9838;SDS011;4958;48.150;11.506;2022-08-01T01:21:50;2.30;;;1.90;;
9838;SDS011;4958;48.150;11.506;2022-08-01T01:24:37;3.08;;;2.15;;
9838;SDS011;4958;48.150;11.506;2022-08-01T01:27:13;2.15;;;2.00;;
9838;SDS011;4958;48.150;11.506;2022-08-01T01:29:48;1.95;;;1.85;;
9838;SDS011;4958;48.150;11.506;2022-08-01T01:32:18;2.30;;;2.20;;
9838;SDS011;4958;48.150;11.506;2022-08-01T01:34:49;3.70;;;2.22;;
9838;SDS011;4958;48.150;11.506;2022-08-01T01:37:19;2.30;;;2.10;;
9838;SDS011;4958;48.150;11.506;2022-08-01T01:39:49;2.63;;;2.00;;
9838;SDS011;4958;48.150;11.506;2022-08-01T01:42:17;2.58;;;2.10;;
9838;SDS011;4958;48.150;11.506;2022-08-01T01:44:46;1.90;;;1.80;;
9838;SDS011;4958;48.150;11.506;2022-08-01T01:47:16;3.05;;;2.08;;
9838;SDS011;4958;48.150;11.506;2022-08-01T01:49:43;2.65;;;2.10;;
9838;SDS011;4958;48.150;11.506;2022-08-01T01:52:12;3.05;;;2.13;;
9838;SDS011;4958;48.150;11.506;2022-08-01T01:54:40;2.42;;;1.92;;
9838;SDS011;4958;48.150;11.506;2022-08-01T01:57:16;2.15;;;2.00;;
9838;SDS011;4958;48.150;11.506;2022-08-01T01:59:44;4.75;;;2.00;;
9838;SDS011;4958;48.150;11.506;2022-08-01T02:02:15;2.75;;;2.20;;
9838;SDS011;4958;48.150;11.506;2022-08-01T02:04:43;2.60;;;2.40;;
9838;SDS011;4958;48.150;11.506;2022-08-01T02:07:14;3.40;;;2.30;;
9838;SDS011;4958;48.150;11.506;2022-08-01T02:09:45;3.97;;;2.00;;
9838;SDS011;4958;48.150;11.506;2022-08-01T02:12:12;2.42;;;2.22;;
9838;SDS011;4958;48.150;11.506;2022-08-01T02:14:42;3.38;;;2.22;;
9838;SDS011;4958;48.150;11.506;2022-08-01T02:17:11;2.35;;;2.15;;
9838;SDS011;4958;48.150;11.506;2022-08-01T02:19:42;2.30;;;2.10;;
9838;SDS011;4958;48.150;11.506;2022-08-01T02:22:10;2.00;;;1.90;;
9838;SDS011;4958;48.150;11.506;2022-08-01T02:24:42;4.10;;;2.42;;
9838;SDS011;4958;48.150;11.506;2022-08-01T02:27:15;2.20;;;1.95;;
9838;SDS011;4958;48.150;11.506;2022-08-01T02:29:50;2.25;;;2.05;;
9838;SDS011;4958;48.150;11.506;2022-08-01T02:32:23;2.45;;;2.25;;
9838;SDS011;4958;48.150;11.506;2022-08-01T02:34:54;2.65;;;2.17;;
9838;SDS011;4958;48.150;11.506;2022-08-01T02:37:23;2.50;;;2.15;;
9838;SDS011;4958;48.150;11.506;2022-08-01T02:39:52;2.28;;;2.13;;
9838;SDS011;4958;48.150;11.506;2022-08-01T02:42:21;3.33;;;2.40;;
9838;SDS011;4958;48.150;11.506;2022-08-01T02:44:50;1.90;;;1.80;;
9838;SDS011;4958;48.150;11.506;2022-08-01T02:47:19;3.08;;;2.17;;
9838;SDS011;4958;48.150;11.506;2022-08-01T02:49:48;2.40;;;2.20;;
9838;SDS011;4958;48.150;11.506;2022-08-01T02:52:20;3.75;;;2.35;;
9838;SDS011;4958;48.150;11.506;2022-08-01T02:54:50;2.20;;;2.00;;
9838;SDS011;4958;48.150;11.506;2022-08-01T02:57:19;2.28;;;2.08;;
9838;SDS011;4958;48.150;11.506;2022-08-01T02:59:47;2.20;;;2.00;;
9838;SDS011;4958;48.150;11.506;2022-08-01T03:02:15;2.63;;;2.15;;
9838;SDS011;4958;48.150;11.506;2022-08-01T03:04:43;2.25;;;2.13;;
9838;SDS011;4958;48.150;11.506;2022-08-01T03:07:10;2.20;;;2.10;;
9838;SDS011;4958;48.150;11.506;2022-08-01T03:09:40;2.70;;;2.00;;
9838;SDS011;4958;48.150;11.506;2022-08-01T03:12:11;2.17;;;1.98;;
9838;SDS011;4958;48.150;11.506;2022-08-01T03:14:41;2.45;;;2.25;;
9838;SDS011;4958;48.150;11.506;2022-08-01T03:17:09;3.13;;;1.98;;
9838;SDS011;4958;48.150;11.506;2022-08-01T03:19:36;2.67;;;2.15;;
9838;SDS011;4958;48.150;11.506;2022-08-01T03:22:05;4.40;;;2.05;;
9838;SDS011;4958;48.150;11.506;2022-08-01T03:24:34;3.92;;;2.35;;
9838;SDS011;4958;48.150;11.506;2022-08-01T03:27:04;2.28;;;2.13;;
9838;SDS011;4958;48.150;11.506;2022-08-01T03:29:32;2.80;;;2.17;;
9838;SDS011;4958;48.150;11.506;2022-08-01T03:32:00;2.58;;;2.20;;
9838;SDS011;4958;48.150;11.506;2022-08-01T03:34:27;2.35;;;2.15;;
9838;SDS011;4958;48.150;11.506;2022-08-01T03:36:55;2.25;;;2.15;;
9838;SDS011;4958;48.150;11.506;2022-08-01T03:39:28;4.47;;;2.63;;
9838;SDS011;4958;48.150;11.506;2022-08-01T03:41:57;2.22;;;2.10;;
9838;SDS011;4958;48.150;11.506;2022-08-01T03:44:29;2.50;;;2.30;;
9838;SDS011;4958;48.150;11.506;2022-08-01T03:47:00;2.40;;;2.20;;
9838;SDS011;4958;48.150;11.506;2022-08-01T03:49:30;2.50;;;2.30;;
9838;SDS011;4958;48.150;11.506;2022-08-01T03:51:59;2.97;;;2.45;;
9838;SDS011;4958;48.150;11.506;2022-08-01T03:54:30;2.88;;;2.10;;
9838;SDS011;4958;48.150;11.506;2022-08-01T03:56:59;5.93;;;2.58;;
9838;SDS011;4958;48.150;11.506;2022-08-01T03:59:27;2.35;;;2.10;;
9838;SDS011;4958;48.150;11.506;2022-08-01T04:01:56;2.60;;;2.40;;
9838;SDS011;4958;48.150;11.506;2022-08-01T04:04:24;3.33;;;2.20;;
9838;SDS011;4958;48.150;11.506;2022-08-01T04:06:51;2.63;;;2.20;;
9838;SDS011;4958;48.150;11.506;2022-08-01T04:09:19;4.50;;;2.30;;
9838;SDS011;4958;48.150;11.506;2022-08-01T04:11:45;3.75;;;2.17;;
9838;SDS011;4958;48.150;11.506;2022-08-01T04:14:12;3.22;;;2.20;;
9838;SDS011;4958;48.150;11.506;2022-08-01T04:16:40;2.72;;;2.15;;
9838;SDS011;4958;48.150;11.506;2022-08-01T04:19:06;2.30;;;2.10;;
9838;SDS011;4958;48.150;11.506;2022-08-01T04:21:33;2.30;;;2.20;;
9838;SDS011;4958;48.150;11.506;2022-08-01T04:24:02;2.40;;;2.20;;
9838;SDS011;4958;48.150;11.506;2022-08-01T04:26:32;2.30;;;2.10;;
9838;SDS011;4958;48.150;11.506;2022-08-01T04:29:02;2.40;;;2.22;;
9838;SDS011;4958;48.150;11.506;2022-08-01T04:31:30;3.03;;;2.20;;
9838;SDS011;4958;48.150;11.506;2022-08-01T04:34:00;2.30;;;2.10;;
9838;SDS011;4958;48.150;11.506;2022-08-01T04:36:30;4.25;;;2.40;;
9838;SDS011;4958;48.150;11.506;2022-08-01T04:39:01;3.67;;;2.20;;
9838;SDS011;4958;48.150;11.506;2022-08-01T04:41:30;7.75;;;2.28;;
9838;SDS011;4958;48.150;11.506;2022-08-01T04:43:57;4.72;;;2.38;;
9838;SDS011;4958;48.150;11.506;2022-08-01T04:46:25;2.53;;;2.33;;
9838;SDS011;4958;48.150;11.506;2022-08-01T04:48:53;2.20;;;2.10;;
9838;SDS011;4958;48.150;11.506;2022-08-01T04:51:22;2.50;;;2.30;;
9838;SDS011;4958;48.150;11.506;2022-08-01T04:53:49;2.83;;;2.20;;
9838;SDS011;4958;48.150;11.506;2022-08-01T04:56:16;2.28;;;2.03;;
9838;SDS011;4958;48.150;11.506;2022-08-01T04:58:43;5.82;;;2.47;;
9838;SDS011;4958;48.150;11.506;2022-08-01T05:01:10;2.22;;;2.03;;
9838;SDS011;4958;48.150;11.506;2022-08-01T05:03:37;3.92;;;2.30;;
9838;SDS011;4958;48.150;11.506;2022-08-01T05:06:03;2.35;;;2.15;;
9838;SDS011;4958;48.150;11.506;2022-08-01T05:08:31;2.70;;;2.30;;
9838;SDS011;4958;48.150;11.506;2022-08-01T05:10:57;3.88;;;2.30;;
9838;SDS011;4958;48.150;11.506;2022-08-01T05:13:24;3.45;;;2.30;;
9838;SDS011;4958;48.150;11.506;2022-08-01T05:15:50;3.30;;;2.20;;
9838;SDS011;4958;48.150;11.506;2022-08-01T05:18:17;2.50;;;2.30;;
9838;SDS011;4958;48.150;11.506;2022-08-01T05:20:43;4.00;;;2.20;;
9838;SDS011;4958;48.150;11.506;2022-08-01T05:23:10;2.40;;;2.20;;
9838;SDS011;4958;48.150;11.506;2022-08-01T05:25:38;3.00;;;2.20;;
9838;SDS011;4958;48.150;11.506;2022-08-01T05:28:05;4.03;;;2.10;;
9838;SDS011;4958;48.150;11.506;2022-08-01T05:30:31;5.97;;;2.28;;
9838;SDS011;4958;48.150;11.506;2022-08-01T05:32:57;4.90;;;2.30;;
9838;SDS011;4958;48.150;11.506;2022-08-01T05:35:24;2.15;;;2.05;;
9838;SDS011;4958;48.150;11.506;2022-08-01T05:37:50;3.85;;;2.70;;
9838;SDS011;4958;48.150;11.506;2022-08-01T05:40:17;2.20;;;2.10;;
9838;SDS011;4958;48.150;11.506;2022-08-01T05:42:45;4.28;;;3.88;;
9838;SDS011;4958;48.150;11.506;2022-08-01T05:45:11;3.50;;;3.20;;
9838;SDS011;4958;48.150;11.506;2022-08-01T05:47:37;3.80;;;3.00;;
9838;SDS011;4958;48.150;11.506;2022-08-01T05:50:04;2.42;;;2.22;;
9838;SDS011;4958;48.150;11.506;2022-08-01T05:52:31;2.47;;;2.28;;
9838;SDS011;4958;48.150;11.506;2022-08-01T05:54:58;4.15;;;2.30;;
9838;SDS011;4958;48.150;11.506;2022-08-01T05:57:24;2.38;;;2.20;;
9838;SDS011;4958;48.150;11.506;2022-08-01T05:59:52;2.97;;;2.25;;
9838;SDS011;4958;48.150;11.506;2022-08-01T06:02:18;2.50;;;2.30;;
9838;SDS011;4958;48.150;11.506;2022-08-01T06:04:45;3.55;;;2.20;;
9838;SDS011;4958;48.150;11.506;2022-08-01T06:07:11;2.22;;;2.03;;
9838;SDS011;4958;48.150;11.506;2022-08-01T06:09:37;2.60;;;2.40;;
9838;SDS011;4958;48.150;11.506;2022-08-01T06:12:04;2.97;;;2.33;;
9838;SDS011;4958;48.150;11.506;2022-08-01T06:14:33;3.17;;;2.35;;
9838;SDS011;4958;48.150;11.506;2022-08-01T06:17:00;2.40;;;2.20;;
9838;SDS011;4958;48.150;11.506;2022-08-01T06:19:27;2.38;;;2.17;;
9838;SDS011;4958;48.150;11.506;2022-08-01T06:21:53;2.38;;;2.17;;
9838;SDS011;4958;48.150;11.506;2022-08-01T06:24:20;3.10;;;2.30;;
9838;SDS011;4958;48.150;11.506;2022-08-01T06:26:48;3.45;;;2.63;;
9838;SDS011;4958;48.150;11.506;2022-08-01T06:29:14;2.67;;;2.40;;
9838;SDS011;4958;48.150;11.506;2022-08-01T06:31:41;4.90;;;2.65;;
9838;SDS011;4958;48.150;11.506;2022-08-01T06:34:08;4.40;;;2.30;;
9838;SDS011;4958;48.150;11.506;2022-08-01T06:36:35;2.70;;;2.50;;
9838;SDS011;4958;48.150;11.506;2022-08-01T06:39:01;2.50;;;2.30;;
9838;SDS011;4958;48.150;11.506;2022-08-01T06:41:28;2.58;;;2.38;;
9838;SDS011;4958;48.150;11.506;2022-08-01T06:43:54;3.85;;;2.60;;
9838;SDS011;4958;48.150;11.506;2022-08-01T06:46:21;3.72;;;3.42;;
9838;SDS011;4958;48.150;11.506;2022-08-01T06:48:47;4.57;;;3.78;;
9838;SDS011;4958;48.150;11.506;2022-08-01T06:51:15;3.72;;;2.80;;
9838;SDS011;4958;48.150;11.506;2022-08-01T06:53:44;3.53;;;2.90;;
9838;SDS011;4958;48.150;11.506;2022-08-01T06:56:11;3.17;;;2.88;;
9838;SDS011;4958;48.150;11.506;2022-08-01T06:58:37;3.40;;;3.10;;
9838;SDS011;4958;48.150;11.506;2022-08-01T07:01:04;2.83;;;2.60;;
9838;SDS011;4958;48.150;11.506;2022-08-01T07:03:32;4.85;;;2.60;;
9838;SDS011;4958;48.150;11.506;2022-08-01T07:05:58;2.75;;;2.55;;
9838;SDS011;4958;48.150;11.506;2022-08-01T07:08:26;3.45;;;2.65;;
9838;SDS011;4958;48.150;11.506;2022-08-01T07:10:53;4.90;;;2.50;;
9838;SDS011;4958;48.150;11.506;2022-08-01T07:13:22;6.10;;;2.78;;
9838;SDS011;4958;48.150;11.506;2022-08-01T07:15:50;3.10;;;2.85;;
9838;SDS011;4958;48.150;11.506;2022-08-01T07:18:16;2.97;;;2.60;;
9838;SDS011;4958;48.150;11.506;2022-08-01T07:20:43;2.90;;;2.50;;
9838;SDS011;4958;48.150;11.506;2022-08-01T07:23:11;2.80;;;2.60;;
9838;SDS011;4958;48.150;11.506;2022-08-01T07:25:38;2.70;;;2.50;;
9838;SDS011;4958;48.150;11.506;2022-08-01T07:28:05;3.65;;;2.63;;
9838;SDS011;4958;48.150;11.506;2022-08-01T07:30:31;2.90;;;2.60;;
9838;SDS011;4958;48.150;11.506;2022-08-01T07:32:58;2.83;;;2.53;;
9838;SDS011;4958;48.150;11.506;2022-08-01T07:35:24;2.90;;;2.70;;
9838;SDS011;4958;48.150;11.506;2022-08-01T07:37:51;3.00;;;2.70;;
9838;SDS011;4958;48.150;11.506;2022-08-01T07:40:18;3.03;;;2.70;;
9838;SDS011;4958;48.150;11.506;2022-08-01T07:42:47;3.00;;;2.70;;
9838;SDS011;4958;48.150;11.506;2022-08-01T07:45:13;5.35;;;2.85;;
9838;SDS011;4958;48.150;11.506;2022-08-01T07:47:40;3.20;;;2.90;;
9838;SDS011;4958;48.150;11.506;2022-08-01T07:50:07;2.83;;;2.63;;
9838;SDS011;4958;48.150;11.506;2022-08-01T07:52:34;2.90;;;2.70;;
9838;SDS011;4958;48.150;11.506;2022-08-01T07:55:00;2.90;;;2.70;;
9838;SDS011;4958;48.150;11.506;2022-08-01T07:57:27;3.58;;;2.45;;
9838;SDS011;4958;48.150;11.506;2022-08-01T07:59:55;2.70;;;2.38;;
9838;SDS011;4958;48.150;11.506;2022-08-01T08:02:21;3.05;;;2.80;;
9838;SDS011;4958;48.150;11.506;2022-08-01T08:04:48;3.20;;;2.70;;
9838;SDS011;4958;48.150;11.506;2022-08-01T08:07:14;3.90;;;2.63;;
9838;SDS011;4958;48.150;11.506;2022-08-01T08:09:41;3.25;;;2.70;;
9838;SDS011;4958;48.150;11.506;2022-08-01T08:12:08;3.15;;;2.88;;
9838;SDS011;4958;48.150;11.506;2022-08-01T08:14:36;3.13;;;2.80;;
9838;SDS011;4958;48.150;11.506;2022-08-01T08:17:04;2.75;;;2.55;;
9838;SDS011;4958;48.150;11.506;2022-08-01T08:19:31;3.15;;;2.58;;
9838;SDS011;4958;48.150;11.506;2022-08-01T08:21:58;2.60;;;2.40;;
9838;SDS011;4958;48.150;11.506;2022-08-01T08:24:25;3.00;;;2.75;;
9838;SDS011;4958;48.150;11.506;2022-08-01T08:26:53;3.88;;;2.67;;
9838;SDS011;4958;48.150;11.506;2022-08-01T08:29:22;3.05;;;2.85;;
9838;SDS011;4958;48.150;11.506;2022-08-01T08:31:48;2.88;;;2.60;;
9838;SDS011;4958;48.150;11.506;2022-08-01T08:34:17;2.92;;;2.70;;
9838;SDS011;4958;48.150;11.506;2022-08-01T08:36:43;2.95;;;2.75;;
9838;SDS011;4958;48.150;11.506;2022-08-01T08:39:09;5.10;;;2.80;;
9838;SDS011;4958;48.150;11.506;2022-08-01T08:41:36;2.90;;;2.70;;
9838;SDS011;4958;48.150;11.506;2022-08-01T08:44:03;4.30;;;2.60;;
9838;SDS011;4958;48.150;11.506;2022-08-01T08:46:31;5.18;;;2.70;;
9838;SDS011;4958;48.150;11.506;2022-08-01T08:48:59;2.63;;;2.42;;
9838;SDS011;4958;48.150;11.506;2022-08-01T08:51:28;2.72;;;2.53;;
9838;SDS011;4958;48.150;11.506;2022-08-01T08:53:57;5.68;;;5.20;;
9838;SDS011;4958;48.150;11.506;2022-08-01T08:56:24;3.38;;;2.70;;
9838;SDS011;4958;48.150;11.506;2022-08-01T08:58:55;2.53;;;2.30;;
9838;SDS011;4958;48.150;11.506;2022-08-01T09:01:21;2.80;;;2.38;;
9838;SDS011;4958;48.150;11.506;2022-08-01T09:03:48;4.82;;;2.63;;
9838;SDS011;4958;48.150;11.506;2022-08-01T09:06:15;2.58;;;2.38;;
9838;SDS011;4958;48.150;11.506;2022-08-01T09:08:42;2.55;;;2.35;;
9838;SDS011;4958;48.150;11.506;2022-08-01T09:11:09;4.20;;;2.85;;
9838;SDS011;4958;48.150;11.506;2022-08-01T09:13:35;3.33;;;2.40;;
9838;SDS011;4958;48.150;11.506;2022-08-01T09:16:02;2.63;;;2.42;;
9838;SDS011;4958;48.150;11.506;2022-08-01T09:18:31;3.65;;;2.63;;
9838;SDS011;4958;48.150;11.506;2022-08-01T09:21:13;2.70;;;2.50;;
9838;SDS011;4958;48.150;11.506;2022-08-01T09:23:43;2.75;;;2.55;;
9838;SDS011;4958;48.150;11.506;2022-08-01T09:26:11;2.67;;;2.30;;
9838;SDS011;4958;48.150;11.506;2022-08-01T09:28:39;2.75;;;2.50;;
9838;SDS011;4958;48.150;11.506;2022-08-01T09:31:07;2.35;;;2.15;;
9838;SDS011;4958;48.150;11.506;2022-08-01T09:33:46;4.47;;;2.10;;
9838;SDS011;4958;48.150;11.506;2022-08-01T09:36:14;2.28;;;2.10;;
9838;SDS011;4958;48.150;11.506;2022-08-01T09:38:40;2.10;;;1.90;;
9838;SDS011;4958;48.150;11.506;2022-08-01T09:41:08;2.03;;;1.83;;
9838;SDS011;4958;48.150;11.506;2022-08-01T09:43:36;2.95;;;1.70;;
9838;SDS011;4958;48.150;11.506;2022-08-01T09:46:08;1.90;;;1.80;;
9838;SDS011;4958;48.150;11.506;2022-08-01T09:48:37;2.40;;;2.10;;
9838;SDS011;4958;48.150;11.506;2022-08-01T09:51:04;2.75;;;1.98;;
9838;SDS011;4958;48.150;11.506;2022-08-01T09:53:42;6.63;;;6.07;;
9838;SDS011;4958;48.150;11.506;2022-08-01T09:56:12;2.40;;;2.20;;
9838;SDS011;4958;48.150;11.506;2022-08-01T09:58:49;3.70;;;2.17;;
9838;SDS011;4958;48.150;11.506;2022-08-01T10:01:20;3.47;;;2.20;;
9838;SDS011;4958;48.150;11.506;2022-08-01T10:04:04;1.83;;;1.70;;
9838;SDS011;4958;48.150;11.506;2022-08-01T10:06:32;4.75;;;1.90;;
9838;SDS011;4958;48.150;11.506;2022-08-01T10:08:58;2.17;;;2.08;;
9838;SDS011;4958;48.150;11.506;2022-08-01T10:11:26;3.58;;;2.00;;
9838;SDS011;4958;48.150;11.506;2022-08-01T10:13:54;2.17;;;1.77;;
9838;SDS011;4958;48.150;11.506;2022-08-01T10:16:21;1.92;;;1.80;;
9838;SDS011;4958;48.150;11.506;2022-08-01T10:18:49;5.22;;;2.08;;
9838;SDS011;4958;48.150;11.506;2022-08-01T10:21:16;2.58;;;1.70;;
9838;SDS011;4958;48.150;11.506;2022-08-01T10:23:44;2.30;;;1.80;;
9838;SDS011;4958;48.150;11.506;2022-08-01T10:26:11;2.88;;;1.80;;
9838;SDS011;4958;48.150;11.506;2022-08-01T10:28:41;2.22;;;1.90;;
9838;SDS011;4958;48.150;11.506;2022-08-01T10:31:13;1.88;;;1.77;;
9838;SDS011;4958;48.150;11.506;2022-08-01T10:33:40;2.03;;;1.90;;
9838;SDS011;4958;48.150;11.506;2022-08-01T10:36:07;4.75;;;1.83;;
9838;SDS011;4958;48.150;11.506;2022-08-01T10:38:34;2.33;;;1.70;;
9838;SDS011;4958;48.150;11.506;2022-08-01T10:41:04;1.80;;;1.70;;
9838;SDS011;4958;48.150;11.506;2022-08-01T10:43:31;2.13;;;1.98;;
9838;SDS011;4958;48.150;11.506;2022-08-01T10:45:58;2.63;;;2.33;;
9838;SDS011;4958;48.150;11.506;2022-08-01T10:48:27;1.98;;;1.88;;
9838;SDS011;4958;48.150;11.506;2022-08-01T10:51:00;2.15;;;1.95;;
9838;SDS011;4958;48.150;11.506;2022-08-01T10:53:30;1.75;;;1.65;;
9838;SDS011;4958;48.150;11.506;2022-08-01T10:55:59;2.67;;;1.90;;
9838;SDS011;4958;48.150;11.506;2022-08-01T10:58:28;2.75;;;1.70;;
9838;SDS011;4958;48.150;11.506;2022-08-01T11:01:18;4.85;;;1.80;;
9838;SDS011;4958;48.150;11.506;2022-08-01T11:03:57;2.30;;;2.05;;
9838;SDS011;4958;48.150;11.506;2022-08-01T11:06:42;3.75;;;1.80;;
9838;SDS011;4958;48.150;11.506;2022-08-01T11:09:27;3.10;;;1.85;;
9838;SDS011;4958;48.150;11.506;2022-08-01T11:11:58;4.40;;;1.98;;
9838;SDS011;4958;48.150;11.506;2022-08-01T11:14:28;2.75;;;1.60;;
9838;SDS011;4958;48.150;11.506;2022-08-01T11:16:56;1.80;;;1.70;;
9838;SDS011;4958;48.150;11.506;2022-08-01T11:20:08;3.50;;;1.75;;
9838;SDS011;4958;48.150;11.506;2022-08-01T11:29:10;1.95;;;1.85;;
9838;SDS011;4958;48.150;11.506;2022-08-01T11:31:44;3.72;;;2.00;;
9838;SDS011;4958;48.150;11.506;2022-08-01T11:34:11;2.65;;;2.40;;
9838;SDS011;4958;48.150;11.506;2022-08-01T11:36:37;2.20;;;2.00;;
9838;SDS011;4958;48.150;11.506;2022-08-01T11:39:11;1.92;;;1.60;;
9838;SDS011;4958;48.150;11.506;2022-08-01T11:41:42;2.22;;;2.05;;
9838;SDS011;4958;48.150;11.506;2022-08-01T11:44:11;2.17;;;1.92;;
9838;SDS011;4958;48.150;11.506;2022-08-01T11:46:50;2.58;;;2.38;;
9838;SDS011;4958;48.150;11.506;2022-08-01T11:49:37;4.20;;;1.85;;
9838;SDS011;4958;48.150;11.506;2022-08-01T11:52:11;1.80;;;1.70;;
9838;SDS011;4958;48.150;11.506;2022-08-01T11:54:40;2.50;;;1.80;;
9838;SDS011;4958;48.150;11.506;2022-08-01T11:57:10;1.80;;;1.70;;
9838;SDS011;4958;48.150;11.506;2022-08-01T11:59:38;2.28;;;1.40;;
9838;SDS011;4958;48.150;11.506;2022-08-01T12:02:16;1.50;;;1.40;;
9838;SDS011;4958;48.150;11.506;2022-08-01T12:04:47;2.80;;;1.60;;
9838;SDS011;4958;48.150;11.506;2022-08-01T12:07:15;1.52;;;1.40;;
9838;SDS011;4958;48.150;11.506;2022-08-01T12:09:43;1.70;;;1.60;;
9838;SDS011;4958;48.150;11.506;2022-08-01T12:12:09;1.55;;;1.40;;
9838;SDS011;4958;48.150;11.506;2022-08-01T12:14:36;1.67;;;1.45;;
9838;SDS011;4958;48.150;11.506;2022-08-01T12:17:06;1.90;;;1.40;;
9838;SDS011;4958;48.150;11.506;2022-08-01T12:19:33;4.55;;;3.05;;
9838;SDS011;4958;48.150;11.506;2022-08-01T12:22:04;1.80;;;1.70;;
9838;SDS011;4958;48.150;11.506;2022-08-01T12:24:32;2.35;;;1.65;;
9838;SDS011;4958;48.150;11.506;2022-08-01T12:26:59;2.22;;;1.35;;
9838;SDS011;4958;48.150;11.506;2022-08-01T12:29:32;2.28;;;1.30;;
9838;SDS011;4958;48.150;11.506;2022-08-01T12:32:00;1.40;;;1.30;;
9838;SDS011;4958;48.150;11.506;2022-08-01T12:34:27;1.63;;;1.52;;
9838;SDS011;4958;48.150;11.506;2022-08-01T12:36:55;1.75;;;1.27;;
9838;SDS011;4958;48.150;11.506;2022-08-01T12:39:28;1.42;;;1.33;;
9838;SDS011;4958;48.150;11.506;2022-08-01T12:41:56;1.50;;;1.40;;
9838;SDS011;4958;48.150;11.506;2022-08-01T12:44:23;3.40;;;1.58;;
9838;SDS011;4958;48.150;11.506;2022-08-01T12:46:50;2.00;;;1.33;;
9838;SDS011;4958;48.150;11.506;2022-08-01T12:49:17;1.98;;;1.23;;
9838;SDS011;4958;48.150;11.506;2022-08-01T12:51:46;1.50;;;1.40;;
9838;SDS011;4958;48.150;11.506;2022-08-01T12:54:14;1.38;;;1.27;;
9838;SDS011;4958;48.150;11.506;2022-08-01T12:56:40;1.80;;;1.40;;
9838;SDS011;4958;48.150;11.506;2022-08-01T12:59:19;3.03;;;1.20;;
9838;SDS011;4958;48.150;11.506;2022-08-01T13:01:47;1.88;;;1.35;;
9838;SDS011;4958;48.150;11.506;2022-08-01T13:04:13;1.38;;;1.27;;
9838;SDS011;4958;48.150;11.506;2022-08-01T13:06:40;1.48;;;1.38;;
9838;SDS011;4958;48.150;11.506;2022-08-01T13:09:06;2.53;;;1.73;;
9838;SDS011;4958;48.150;11.506;2022-08-01T13:11:35;2.30;;;1.30;;
9838;SDS011;4958;48.150;11.506;2022-08-01T13:14:01;4.10;;;1.30;;
9838;SDS011;4958;48.150;11.506;2022-08-01T13:16:28;1.88;;;1.55;;
9838;SDS011;4958;48.150;11.506;2022-08-01T13:18:55;2.15;;;1.35;;
9838;SDS011;4958;48.150;11.506;2022-08-01T13:21:22;4.43;;;2.15;;
9838;SDS011;4958;48.150;11.506;2022-08-01T13:24:00;4.15;;;3.72;;
9838;SDS011;4958;48.150;11.506;2022-08-01T13:26:41;6.05;;;3.45;;
9838;SDS011;4958;48.150;11.506;2022-08-01T13:29:09;2.17;;;1.98;;
9838;SDS011;4958;48.150;11.506;2022-08-01T13:31:38;2.33;;;1.70;;
9838;SDS011;4958;48.150;11.506;2022-08-01T13:34:05;1.63;;;1.52;;
9838;SDS011;4958;48.150;11.506;2022-08-01T13:36:32;4.20;;;2.13;;
9838;SDS011;4958;48.150;11.506;2022-08-01T13:38:59;2.42;;;1.77;;
9838;SDS011;4958;48.150;11.506;2022-08-01T13:41:45;2.88;;;2.00;;
9838;SDS011;4958;48.150;11.506;2022-08-01T13:44:12;3.30;;;2.00;;
9838;SDS011;4958;48.150;11.506;2022-08-01T13:46:40;3.33;;;2.17;;
9838;SDS011;4958;48.150;11.506;2022-08-01T13:49:07;4.25;;;1.52;;
9838;SDS011;4958;48.150;11.506;2022-08-01T13:51:35;3.85;;;1.80;;
9838;SDS011;4958;48.150;11.506;2022-08-01T13:54:02;7.60;;;6.97;;
9838;SDS011;4958;48.150;11.506;2022-08-01T13:56:29;10.82;;;9.95;;
9838;SDS011;4958;48.150;11.506;2022-08-01T13:58:57;3.97;;;3.67;;
9838;SDS011;4958;48.150;11.506;2022-08-01T14:01:24;3.67;;;3.38;;
9838;SDS011;4958;48.150;11.506;2022-08-01T14:03:51;3.97;;;3.10;;
9838;SDS011;4958;48.150;11.506;2022-08-01T14:06:17;1.50;;;1.40;;
9838;SDS011;4958;48.150;11.506;2022-08-01T14:08:46;2.65;;;2.28;;
9838;SDS011;4958;48.150;11.506;2022-08-01T14:11:12;3.65;;;2.00;;
9838;SDS011;4958;48.150;11.506;2022-08-01T14:13:39;1.60;;;1.45;;
9838;SDS011;4958;48.150;11.506;2022-08-01T14:16:07;2.65;;;1.70;;
9838;SDS011;4958;48.150;11.506;2022-08-01T14:18:33;1.92;;;1.30;;
9838;SDS011;4958;48.150;11.506;2022-08-01T14:21:00;2.55;;;1.75;;
9838;SDS011;4958;48.150;11.506;2022-08-01T14:23:26;2.78;;;1.60;;
9838;SDS011;4958;48.150;11.506;2022-08-01T14:25:53;2.38;;;1.77;;
9838;SDS011;4958;48.150;11.506;2022-08-01T14:28:19;3.05;;;2.13;;
9838;SDS011;4958;48.150;11.506;2022-08-01T14:30:50;2.53;;;2.08;;
9838;SDS011;4958;48.150;11.506;2022-08-01T14:33:18;2.20;;;2.00;;
9838;SDS011;4958;48.150;11.506;2022-08-01T14:35:44;2.15;;;1.83;;
9838;SDS011;4958;48.150;11.506;2022-08-01T14:38:10;2.08;;;1.88;;
9838;SDS011;4958;48.150;11.506;2022-08-01T14:40:37;2.70;;;1.80;;
9838;SDS011;4958;48.150;11.506;2022-08-01T14:43:03;2.25;;;1.90;;
9838;SDS011;4958;48.150;11.506;2022-08-01T14:45:29;2.88;;;1.88;;
9838;SDS011;4958;48.150;11.506;2022-08-01T14:47:56;3.28;;;1.83;;
9838;SDS011;4958;48.150;11.506;2022-08-01T14:50:24;1.85;;;1.63;;
9838;SDS011;4958;48.150;11.506;2022-08-01T14:52:51;10.07;;;9.18;;
9838;SDS011;4958;48.150;11.506;2022-08-01T14:55:18;9.18;;;7.75;;
9838;SDS011;4958;48.150;11.506;2022-08-01T14:57:48;8.93;;;8.02;;
9838;SDS011;4958;48.150;11.506;2022-08-01T15:00:15;5.95;;;5.40;;
9838;SDS011;4958;48.150;11.506;2022-08-01T15:02:42;4.13;;;3.55;;
9838;SDS011;4958;48.150;11.506;2022-08-01T15:05:08;2.38;;;2.17;;
9838;SDS011;4958;48.150;11.506;2022-08-01T15:07:36;3.60;;;2.20;;
9838;SDS011;4958;48.150;11.506;2022-08-01T15:10:04;4.15;;;2.10;;
9838;SDS011;4958;48.150;11.506;2022-08-01T15:12:31;3.70;;;2.97;;
9838;SDS011;4958;48.150;11.506;2022-08-01T15:14:59;4.38;;;1.83;;
9838;SDS011;4958;48.150;11.506;2022-08-01T15:17:26;4.13;;;2.97;;